Time;durP1;ratioP1;P1;durP2;ratioP2;P2;SDS_P1;SDS_P2;PMS_P1;PMS_P2;Temp;Humidity;BMP_temperature;BMP_pressure;BME280_temperature;BME280_humidity;BME280_pressure;Samples;Min_cycle;Max_cycle;Signal;HPM_P1;HPM_P2
2022/11/04 00:01:05;;;;;;;142.10;62.60;;;;;;;-142.57;100.00;61215.63;4945068;29;20048;-92
2022/11/04 00:03:31;;;;;;;141.77;61.67;;;;;;;-142.57;100.00;61215.63;4941444;29;20078;-93
2022/11/04 00:06:00;;;;;;;145.35;63.20;;;;;;;-142.57;100.00;61215.63;4925511;29;20044;-91
2022/11/04 00:08:48;;;;;;;142.80;62.78;;;;;;;-142.57;100.00;61215.63;4958285;29;20030;-90
2022/11/04 00:14:16;;;;;;;140.13;61.50;;;;;;;-142.57;100.00;61215.63;4949073;29;20168;-93
2022/11/04 00:19:26;;;;;;;136.20;60.53;;;;;;;-142.57;100.00;61215.63;4958210;29;20032;-92
2022/11/04 00:29:59;;;;;;;138.18;62.33;;;;;;;-142.57;100.00;61215.63;4942400;29;20043;-92
2022/11/04 00:35:16;;;;;;;162.88;67.82;;;;;;;-142.57;100.00;61215.63;4942137;29;20043;-94
2022/11/04 00:37:43;;;;;;;157.48;65.68;;;;;;;-142.57;100.00;61215.63;4941192;29;20067;-94
2022/11/04 00:40:12;;;;;;;160.70;68.30;;;;;;;-142.57;100.00;61215.63;4925181;29;20023;-94
2022/11/04 00:42:38;;;;;;;153.30;65.43;;;;;;;-142.57;100.00;61215.63;4925009;29;20036;-93
2022/11/04 00:45:10;;;;;;;148.10;64.25;;;;;;;-142.57;100.00;61215.63;4925576;29;20115;-92
2022/11/04 00:47:35;;;;;;;155.60;66.30;;;;;;;-142.57;100.00;61215.63;4940310;29;20043;-92
2022/11/04 00:50:01;;;;;;;165.30;68.55;;;;;;;-142.57;100.00;61215.63;4939561;29;20039;-94
2022/11/04 00:52:26;;;;;;;157.73;66.78;;;;;;;-142.57;100.00;61215.63;4924593;29;20412;-94
2022/11/04 00:54:52;;;;;;;167.00;69.45;;;;;;;-142.57;100.00;61215.63;4925665;29;20485;-93
2022/11/04 00:57:20;;;;;;;178.93;70.90;;;;;;;-142.57;100.00;61215.63;4924796;29;20031;-92
2022/11/04 00:59:46;;;;;;;200.32;75.93;;;;;;;-142.57;100.00;61215.63;4926501;29;20049;-93
2022/11/04 01:02:12;;;;;;;207.75;77.38;;;;;;;-142.57;100.00;61215.63;4927198;29;20099;-94
2022/11/04 01:08:04;;;;;;;208.88;78.57;;;;;;;-142.57;100.00;61215.63;4961406;29;20038;-92
2022/11/04 01:10:29;;;;;;;206.23;78.22;;;;;;;-142.57;100.00;61215.63;4945541;29;20012;-92
2022/11/04 01:12:55;;;;;;;209.68;79.35;;;;;;;-142.57;100.00;61215.63;4945488;29;20129;-92
2022/11/04 01:15:21;;;;;;;210.27;79.20;;;;;;;-142.57;100.00;61215.63;4944263;29;20031;-91
2022/11/04 01:17:47;;;;;;;217.02;81.18;;;;;;;-142.57;100.00;61215.63;4950444;29;20023;-90
2022/11/04 01:20:12;;;;;;;202.05;74.85;;;;;;;-142.57;100.00;61215.63;4942254;29;20040;-89
2022/11/04 01:22:38;;;;;;;194.82;76.38;;;;;;;-142.57;100.00;61215.63;4954827;29;20032;-91
2022/11/04 01:25:04;;;;;;;180.07;73.10;;;;;;;-142.57;100.00;61215.63;4947968;29;20028;-92
2022/11/04 01:27:30;;;;;;;185.82;73.07;;;;;;;-142.57;100.00;61215.63;4932918;29;20126;-90
2022/11/04 01:29:55;;;;;;;185.85;73.93;;;;;;;-142.57;100.00;61215.63;4932670;29;20132;-94
2022/11/04 01:32:21;;;;;;;186.90;73.65;;;;;;;-142.57;100.00;61215.63;4931495;29;20508;-92
2022/11/04 01:34:46;;;;;;;187.13;74.68;;;;;;;-142.57;100.00;61215.63;4913059;29;20413;-91
2022/11/04 01:37:12;;;;;;;185.73;74.35;;;;;;;-142.57;100.00;61215.63;4913895;29;20104;-92
2022/11/04 01:39:37;;;;;;;185.32;71.97;;;;;;;-142.57;100.00;61215.63;4924607;29;20066;-92
2022/11/04 01:42:03;;;;;;;196.82;76.03;;;;;;;-142.57;100.00;61215.63;4932302;29;20124;-93
2022/11/04 01:44:41;;;;;;;187.93;74.82;;;;;;;-142.57;100.00;61215.63;4925723;29;20024;-93
2022/11/04 01:47:16;;;;;;;202.65;78.60;;;;;;;-142.57;100.00;61215.63;4918361;29;20052;-93
2022/11/04 01:49:45;;;;;;;197.63;79.13;;;;;;;-142.57;100.00;61215.63;4925244;29;20048;-92
2022/11/04 01:52:15;;;;;;;191.52;78.80;;;;;;;-142.57;100.00;61215.63;4928004;29;20079;-91
2022/11/04 01:54:44;;;;;;;203.73;80.70;;;;;;;-142.57;100.00;61215.63;4938664;29;20055;-92
2022/11/04 01:57:17;;;;;;;210.40;82.63;;;;;;;-142.57;100.00;61215.63;4926376;29;20036;-92
2022/11/04 01:59:43;;;;;;;201.57;80.35;;;;;;;-142.57;100.00;61215.63;4927484;29;20036;-91
2022/11/04 02:02:08;;;;;;;199.27;78.38;;;;;;;-142.57;100.00;61215.63;4934041;29;20107;-93
2022/11/04 02:04:35;;;;;;;214.38;80.32;;;;;;;-142.57;100.00;61215.63;4920058;29;20023;-94
2022/11/04 02:07:05;;;;;;;197.30;76.07;;;;;;;-142.57;100.00;61215.63;4920461;29;20312;-92
2022/11/04 02:09:33;;;;;;;207.55;80.57;;;;;;;-142.57;100.00;61215.63;4920999;29;20050;-90
2022/11/04 02:14:46;;;;;;;204.88;77.97;;;;;;;-142.57;100.00;61215.63;4919000;29;20095;-92
2022/11/04 02:17:18;;;;;;;202.13;76.68;;;;;;;-142.57;100.00;61215.63;4917637;29;20071;-92
2022/11/04 02:20:05;;;;;;;202.32;75.82;;;;;;;-142.57;100.00;61215.63;4917161;29;20040;-91
2022/11/04 02:22:52;;;;;;;204.38;76.60;;;;;;;-142.57;100.00;61215.63;4917487;29;20044;-92
2022/11/04 02:25:42;;;;;;;204.63;75.50;;;;;;;-142.57;100.00;61215.63;4901187;29;20047;-92
2022/11/04 02:28:17;;;;;;;217.05;77.55;;;;;;;-142.57;100.00;61215.63;4918284;29;20498;-94
2022/11/04 02:30:57;;;;;;;217.82;78.22;;;;;;;-142.57;100.00;61215.63;4917569;29;20040;-92
2022/11/04 02:33:48;;;;;;;208.85;76.10;;;;;;;-142.57;100.00;61215.63;4919374;29;20036;-89
2022/11/04 02:36:32;;;;;;;202.90;74.10;;;;;;;-142.57;100.00;61215.63;4916671;29;20188;-92
2022/11/04 02:39:29;;;;;;;178.32;68.30;;;;;;;-142.57;100.00;61215.63;4918559;29;20044;-91
2022/11/04 02:42:03;;;;;;;160.80;63.72;;;;;;;-142.57;100.00;61215.63;4931684;29;20042;-90
2022/11/04 02:44:42;;;;;;;155.38;60.38;;;;;;;-142.57;100.00;61215.63;4957800;28;20035;-91
2022/11/04 02:47:13;;;;;;;150.40;60.83;;;;;;;-142.57;100.00;61215.63;4941141;28;20042;-92
2022/11/04 02:50:02;;;;;;;135.50;56.35;;;;;;;-142.57;100.00;61215.63;4957141;29;20400;-91
2022/11/04 02:52:30;;;;;;;141.45;57.28;;;;;;;-142.57;100.00;61215.63;4958050;28;20560;-92
2022/11/04 02:55:01;;;;;;;140.52;56.75;;;;;;;-142.57;100.00;61215.63;4940232;29;20050;-92
2022/11/04 02:57:31;;;;;;;148.13;56.72;;;;;;;-142.57;100.00;61215.63;4957011;28;20466;-92
2022/11/04 03:00:00;;;;;;;129.50;56.33;;;;;;;-142.57;100.00;61215.63;4939120;29;20397;-91
2022/11/04 03:02:33;;;;;;;132.30;54.42;;;;;;;-142.57;100.00;61215.63;4956014;29;20110;-92
2022/11/04 03:05:01;;;;;;;133.38;54.53;;;;;;;-142.57;100.00;61215.63;4939236;29;20039;-92
2022/11/04 03:07:31;;;;;;;135.63;55.05;;;;;;;-142.57;100.00;61215.63;4956715;28;20027;-92
2022/11/04 03:10:04;;;;;;;126.57;52.88;;;;;;;-142.57;100.00;61215.63;4939738;29;20106;-92
2022/11/04 03:12:34;;;;;;;;;;;;;;;-142.57;100.00;61215.63;4957181;28;20436;-90
2022/11/04 03:15:06;;;;;;;129.50;52.50;;;;;;;-142.57;100.00;61215.63;4956181;28;20367;-93
2022/11/04 03:17:40;;;;;;;120.60;51.13;;;;;;;-142.57;100.00;61215.63;4956962;28;20063;-93
2022/11/04 03:20:10;;;;;;;118.57;51.05;;;;;;;-142.57;100.00;61215.63;4955898;29;20122;-94
2022/11/04 03:22:36;;;;;;;122.00;52.20;;;;;;;-142.57;100.00;61215.63;4957100;29;20044;-93
2022/11/04 03:25:07;;;;;;;114.80;50.97;;;;;;;-142.57;100.00;61215.63;4956316;28;20045;-93
2022/11/04 03:27:50;;;;;;;115.05;50.13;;;;;;;-142.57;100.00;61215.63;4955118;29;20031;-93
2022/11/04 03:30:20;;;;;;;113.60;49.55;;;;;;;-142.57;100.00;61215.63;4957019;28;20070;-89
2022/11/04 03:32:46;;;;;;;117.50;51.75;;;;;;;-142.57;100.00;61215.63;4955049;29;20027;-92
2022/11/04 03:35:13;;;;;;;111.65;49.28;;;;;;;-142.57;100.00;61215.63;4956925;28;20086;-92
2022/11/04 03:37:39;;;;;;;115.88;49.88;;;;;;;-142.57;100.00;61215.63;4957910;29;20122;-90
2022/11/04 03:40:05;;;;;;;108.95;48.90;;;;;;;-142.57;100.00;61215.63;4973942;28;20042;-90
2022/11/04 03:42:36;;;;;;;109.57;49.22;;;;;;;-142.57;100.00;61215.63;4967031;28;20043;-91
2022/11/04 03:45:02;;;;;;;99.55;43.45;;;;;;;-142.57;100.00;61215.63;4961446;28;20039;-91
2022/11/04 03:47:29;;;;;;;86.78;41.40;;;;;;;-142.57;100.00;61215.63;4964569;28;20037;-90
2022/11/04 03:50:04;;;;;;;92.28;44.70;;;;;;;-142.57;100.00;61215.63;4961674;28;20039;-93
2022/11/04 03:52:30;;;;;;;83.80;41.30;;;;;;;-142.57;100.00;61215.63;4959009;29;20067;-91
2022/11/04 03:54:56;;;;;;;76.82;36.58;;;;;;;-142.57;100.00;61215.63;4960271;28;20090;-92
2022/11/04 03:57:50;;;;;;;72.32;36.63;;;;;;;-142.57;100.00;61215.63;4959225;28;20031;-89
2022/11/04 04:00:18;;;;;;;63.67;33.40;;;;;;;-142.57;100.00;61215.63;4959124;28;20066;-93
2022/11/04 04:03:15;;;;;;;60.33;31.38;;;;;;;-142.57;100.00;61215.63;4958626;28;20477;-91
2022/11/04 04:05:53;;;;;;;56.10;29.52;;;;;;;-142.57;100.00;61215.63;4958431;28;20035;-91
2022/11/04 04:08:41;;;;;;;51.92;27.13;;;;;;;-142.57;100.00;61215.63;4958736;28;20126;-91
2022/11/04 04:11:17;;;;;;;48.70;27.33;;;;;;;-142.57;100.00;61215.63;4957961;29;20032;-91
2022/11/04 04:14:05;;;;;;;42.80;25.45;;;;;;;-142.57;100.00;61215.63;4958980;28;20389;-93
2022/11/04 04:16:44;;;;;;;39.88;24.40;;;;;;;-142.57;100.00;61215.63;4959022;28;20042;-90
2022/11/04 04:19:19;;;;;;;44.65;24.95;;;;;;;-142.57;100.00;61215.63;4941063;29;20035;-93
2022/11/04 04:21:49;;;;;;;42.60;24.00;;;;;;;-142.57;100.00;61215.63;4956869;29;20074;-93
2022/11/04 04:29:50;;;;;;;38.13;21.48;;;;;;;-142.57;100.00;61215.63;4958336;29;20389;-90
2022/11/04 04:32:17;;;;;;;39.70;23.45;;;;;;;-142.57;100.00;61215.63;4958040;28;20086;-91
2022/11/04 04:34:43;;;;;;;38.92;21.55;;;;;;;-142.57;100.00;61215.63;4940763;29;20452;-90
2022/11/04 04:37:20;;;;;;;39.63;22.30;;;;;;;-142.57;100.00;61215.63;4958070;28;20031;-91
2022/11/04 04:45:39;;;;;;;40.08;23.50;;;;;;;-142.57;100.00;61215.63;4957591;29;20075;-89
2022/11/04 04:48:07;;;;;;;43.03;22.80;;;;;;;-142.57;100.00;61215.63;4956602;28;20126;-91
2022/11/04 04:50:44;;;;;;;36.65;21.08;;;;;;;-142.57;100.00;61215.63;4955694;28;20046;-91
2022/11/04 04:53:10;;;;;;;39.00;21.13;;;;;;;-142.57;100.00;61215.63;4957020;28;20039;-91
2022/11/04 04:55:35;;;;;;;37.63;20.08;;;;;;;-142.57;100.00;61215.63;4957895;28;20038;-91
2022/11/04 04:58:01;;;;;;;34.00;19.17;;;;;;;-142.57;100.00;61215.63;4957858;28;20481;-91
2022/11/04 05:00:28;;;;;;;38.92;19.23;;;;;;;-142.57;100.00;61215.63;4958041;28;20477;-92
2022/11/04 05:02:53;;;;;;;30.33;18.02;;;;;;;-142.57;100.00;61215.63;4961520;29;20086;-92
2022/11/04 05:05:20;;;;;;;30.23;18.10;;;;;;;-142.57;100.00;61215.63;4972426;28;20038;-90
2022/11/04 05:07:45;;;;;;;30.85;18.73;;;;;;;-142.57;100.00;61215.63;4977375;28;20062;-87
2022/11/04 05:10:13;;;;;;;33.60;19.13;;;;;;;-142.57;100.00;61215.63;4965472;28;20039;-92
2022/11/04 05:15:26;;;;;;;36.08;19.02;;;;;;;-142.57;100.00;61215.63;4959345;29;20048;-88
2022/11/04 05:17:58;;;;;;;21.77;9.70;;;;;;;-142.57;100.00;61215.63;4967030;28;20033;-89
2022/11/04 05:20:24;;;;;;;2.47;0.93;;;;;;;-142.57;100.00;61215.63;4972333;29;20039;-90
2022/11/04 05:22:50;;;;;;;1.60;0.50;;;;;;;-142.57;100.00;61215.63;4959282;28;20178;-90
2022/11/04 05:25:16;;;;;;;1.30;0.63;;;;;;;-142.57;100.00;61215.63;4958432;28;20443;-90
2022/11/04 05:27:41;;;;;;;3.60;0.50;;;;;;;-142.57;100.00;61215.63;4960652;28;20066;-88
2022/11/04 05:30:07;;;;;;;1.38;0.85;;;;;;;-142.57;100.00;61215.63;4961470;28;20035;-91
2022/11/04 05:32:34;;;;;;;6.93;0.90;;;;;;;-142.57;100.00;61215.63;4938278;28;20031;-87
2022/11/04 05:35:00;;;;;;;2.22;0.50;;;;;;;-142.57;100.00;61215.63;4943539;29;20075;-89
2022/11/04 05:37:25;;;;;;;5.32;1.05;;;;;;;-142.57;100.00;61215.63;4935505;29;20063;-89
2022/11/04 05:39:51;;;;;;;5.47;0.80;;;;;;;-142.57;100.00;61215.63;4930121;29;20039;-90
2022/11/04 05:42:17;;;;;;;1.02;0.40;;;;;;;-142.57;100.00;61215.63;4947613;29;20051;-89
2022/11/04 05:44:43;;;;;;;2.95;0.70;;;;;;;-142.57;100.00;61215.63;4947840;29;20044;-89
2022/11/04 05:47:08;;;;;;;1.98;0.70;;;;;;;-142.57;100.00;61215.63;4952413;29;20075;-87
2022/11/04 05:49:34;;;;;;;2.80;0.77;;;;;;;-142.57;100.00;61215.63;4956479;29;20032;-91
2022/11/04 05:52:00;;;;;;;5.38;0.70;;;;;;;-142.57;100.00;61215.63;4955588;29;20035;-87
2022/11/04 05:54:25;;;;;;;3.33;0.50;;;;;;;-142.57;100.00;61215.63;4948979;29;20130;-86
2022/11/04 05:56:51;;;;;;;3.25;0.80;;;;;;;-142.57;100.00;61215.63;4940340;29;20217;-89
2022/11/04 05:59:17;;;;;;;3.88;0.68;;;;;;;-142.57;100.00;61215.63;4938647;29;20071;-87
2022/11/04 06:01:42;;;;;;;1.65;0.55;;;;;;;-142.57;100.00;61215.63;4937010;29;20039;-89
2022/11/04 06:04:13;;;;;;;2.45;0.80;;;;;;;-142.57;100.00;61215.63;4936046;29;20032;-89
2022/11/04 06:06:39;;;;;;;0.82;0.30;;;;;;;-142.57;100.00;61215.63;4928964;29;20895;-88
2022/11/04 06:09:05;;;;;;;0.57;0.40;;;;;;;-142.57;100.00;61215.63;4930985;29;20043;-86
2022/11/04 06:11:32;;;;;;;1.67;0.60;;;;;;;-142.57;100.00;61215.63;4942285;29;20023;-88
2022/11/04 06:13:58;;;;;;;3.20;0.63;;;;;;;-142.57;100.00;61215.63;4947836;29;20107;-89
2022/11/04 06:16:24;;;;;;;0.95;0.50;;;;;;;-142.57;100.00;61215.63;4948945;29;20047;-87
2022/11/04 06:18:51;;;;;;;0.75;0.50;;;;;;;-142.57;100.00;61215.63;4941908;29;20028;-89
2022/11/04 06:21:20;;;;;;;3.50;0.35;;;;;;;-142.57;100.00;61215.63;4943206;29;20382;-88
2022/11/04 06:23:46;;;;;;;1.13;0.70;;;;;;;-142.57;100.00;61215.63;4942345;29;20040;-88
2022/11/04 06:26:14;;;;;;;1.58;0.50;;;;;;;-142.57;100.00;61215.63;4930840;29;20030;-91
2022/11/04 06:28:39;;;;;;;2.58;0.60;;;;;;;-142.57;100.00;61215.63;4943313;29;20108;-87
2022/11/04 06:31:07;;;;;;;1.75;0.65;;;;;;;-142.57;100.00;61215.63;4953145;29;20023;-90
2022/11/04 06:33:32;;;;;;;1.67;0.60;;;;;;;-142.57;100.00;61215.63;4962493;29;20496;-89
2022/11/04 06:36:01;;;;;;;0.60;0.40;;;;;;;-142.57;100.00;61215.63;4943003;28;20032;-86
2022/11/04 06:38:30;;;;;;;3.00;0.60;;;;;;;-142.57;100.00;61215.63;4949752;29;20034;-86
2022/11/04 06:40:55;;;;;;;0.73;0.30;;;;;;;-142.57;100.00;61215.63;4927559;29;20048;-87
2022/11/04 06:43:21;;;;;;;1.30;0.50;;;;;;;-142.57;100.00;61215.63;4940585;29;20095;-89
2022/11/04 06:45:54;;;;;;;3.22;0.40;;;;;;;-142.57;100.00;61215.63;4927958;29;20097;-88
2022/11/04 06:48:20;;;;;;;0.60;0.43;;;;;;;-142.57;100.00;61215.63;4934653;29;20040;-88
2022/11/04 06:50:45;;;;;;;1.98;0.60;;;;;;;-142.57;100.00;61215.63;4941780;29;20043;-87
2022/11/04 06:53:11;;;;;;;0.88;0.43;;;;;;;-142.57;100.00;61215.63;4945152;29;20047;-90
2022/11/04 06:55:36;;;;;;;1.25;0.50;;;;;;;-142.57;100.00;61215.63;4957532;29;20080;-89
2022/11/04 06:58:02;;;;;;;0.70;0.30;;;;;;;-142.57;100.00;61215.63;4957761;29;20023;-89
2022/11/04 07:00:27;;;;;;;5.82;0.55;;;;;;;-142.57;100.00;61215.63;4948242;29;20038;-88
2022/11/04 07:02:53;;;;;;;1.38;0.75;;;;;;;-142.57;100.00;61215.63;4941819;29;20116;-89
2022/11/04 07:05:19;;;;;;;1.45;0.45;;;;;;;-142.57;100.00;61215.63;4941132;29;20063;-90
2022/11/04 07:07:44;;;;;;;1.10;0.50;;;;;;;-142.57;100.00;61215.63;4947815;29;20031;-88
2022/11/04 07:10:10;;;;;;;2.17;0.40;;;;;;;-142.57;100.00;61215.63;4936692;29;20036;-90
2022/11/04 07:12:36;;;;;;;1.08;0.50;;;;;;;-142.57;100.00;61215.63;4954923;29;20032;-91
2022/11/04 07:15:02;;;;;;;1.15;0.50;;;;;;;-142.57;100.00;61215.63;4945330;29;20036;-88
2022/11/04 07:17:27;;;;;;;1.17;0.43;;;;;;;-142.57;100.00;61215.63;4933074;29;20035;-89
2022/11/04 07:19:59;;;;;;;2.83;0.20;;;;;;;-142.57;100.00;61215.63;4938353;29;20032;-90
2022/11/04 07:22:28;;;;;;;0.30;0.30;;;;;;;-142.57;100.00;61215.63;4948282;29;20036;-89
2022/11/04 07:24:53;;;;;;;0.95;0.35;;;;;;;-142.57;100.00;61215.63;4943102;29;20036;-89
2022/11/04 07:27:19;;;;;;;0.60;0.40;;;;;;;-142.57;100.00;61215.63;4954504;29;20020;-89
2022/11/04 07:29:44;;;;;;;1.45;0.40;;;;;;;-142.57;100.00;61215.63;4941823;29;20115;-87
2022/11/04 07:32:10;;;;;;;2.05;0.35;;;;;;;-142.57;100.00;61215.63;4953056;29;20040;-87
2022/11/04 07:34:35;;;;;;;0.32;0.28;;;;;;;-142.57;100.00;61215.63;4943850;29;20040;-88
2022/11/04 07:37:01;;;;;;;0.50;0.50;;;;;;;-142.57;100.00;61215.63;4945777;29;20048;-88
2022/11/04 07:39:27;;;;;;;0.85;0.40;;;;;;;-142.57;100.00;61215.63;4936697;29;20029;-87
2022/11/04 07:41:52;;;;;;;1.23;0.28;;;;;;;-142.57;100.00;61215.63;4951619;29;20104;-88
2022/11/04 07:44:18;;;;;;;1.20;0.40;;;;;;;-142.57;100.00;61215.63;4951702;29;20040;-88
2022/11/04 07:46:44;;;;;;;0.57;0.40;;;;;;;-142.57;100.00;61215.63;4949474;29;20028;-85
2022/11/04 07:49:10;;;;;;;0.82;0.40;;;;;;;-142.57;100.00;61215.63;4948604;29;20126;-89
2022/11/04 07:51:35;;;;;;;0.30;0.30;;;;;;;-142.57;100.00;61215.63;4941208;29;20087;-87
2022/11/04 07:54:02;;;;;;;2.60;0.40;;;;;;;-142.57;100.00;61215.63;4930089;29;20044;-88
2022/11/04 07:56:27;;;;;;;0.30;0.30;;;;;;;-142.57;100.00;61215.63;4939179;29;20089;-88
2022/11/04 07:58:52;;;;;;;2.70;0.30;;;;;;;-142.57;100.00;61215.63;4932162;29;20613;-87
2022/11/04 08:01:22;;;;;;;2.30;0.20;;;;;;;-142.57;100.00;61215.63;4930179;29;20122;-90
2022/11/04 08:03:49;;;;;;;0.47;0.30;;;;;;;-142.57;100.00;61215.63;4935955;29;20047;-89
2022/11/04 08:06:16;;;;;;;0.28;0.28;;;;;;;-142.57;100.00;61215.63;4919633;29;20523;-88
2022/11/04 08:08:43;;;;;;;0.40;0.20;;;;;;;-142.57;100.00;61215.63;4926618;29;20039;-88
2022/11/04 08:11:12;;;;;;;0.30;0.30;;;;;;;-142.57;100.00;61215.63;4929413;29;20043;-89
2022/11/04 08:13:37;;;;;;;2.33;0.40;;;;;;;-142.57;100.00;61215.63;4933929;29;20040;-88
2022/11/04 08:16:11;;;;;;;0.30;0.30;;;;;;;-142.57;100.00;61215.63;4924053;29;20096;-90
2022/11/04 08:18:36;;;;;;;0.55;0.25;;;;;;;-142.57;100.00;61215.63;4931427;29;20040;-89
2022/11/04 08:21:04;;;;;;;0.20;0.20;;;;;;;-142.57;100.00;61215.63;4919695;29;20079;-89
2022/11/04 08:23:31;;;;;;;0.55;0.30;;;;;;;-142.57;100.00;61215.63;4933155;29;20027;-89
2022/11/04 08:25:57;;;;;;;2.67;0.25;;;;;;;-142.57;100.00;61215.63;4921760;29;20397;-90
2022/11/04 08:28:23;;;;;;;3.42;0.40;;;;;;;-142.57;100.00;61215.63;4935026;29;20032;-90
2022/11/04 08:30:57;;;;;;;0.40;0.40;;;;;;;-142.57;100.00;61215.63;4919360;29;20572;-91
2022/11/04 08:33:24;;;;;;;0.63;0.30;;;;;;;-142.57;100.00;61215.63;4932226;29;20044;-90
2022/11/04 08:35:50;;;;;;;0.80;0.40;;;;;;;-142.57;100.00;61215.63;4934806;29;20071;-90
2022/11/04 08:38:15;;;;;;;0.50;0.30;;;;;;;-142.57;100.00;61215.63;4948974;29;20028;-91
2022/11/04 08:40:45;;;;;;;0.35;0.20;;;;;;;-142.57;100.00;61215.63;4926919;29;20039;-89
2022/11/04 08:43:10;;;;;;;1.45;0.35;;;;;;;-142.57;100.00;61215.63;4927863;29;20036;-91
2022/11/04 08:45:41;;;;;;;0.70;0.28;;;;;;;-142.57;100.00;61215.63;4925097;29;20421;-89
2022/11/04 08:48:07;;;;;;;0.43;0.15;;;;;;;-142.57;100.00;61215.63;4922750;29;20068;-88
2022/11/04 08:50:32;;;;;;;0.20;0.20;;;;;;;-142.57;100.00;61215.63;4931050;29;20024;-90
2022/11/04 08:52:58;;;;;;;0.47;0.30;;;;;;;-142.57;100.00;61215.63;4925670;29;20107;-90
2022/11/04 08:55:24;;;;;;;3.03;0.20;;;;;;;-142.57;100.00;61215.63;4922392;29;20039;-88
2022/11/04 08:57:50;;;;;;;0.32;0.20;;;;;;;-142.57;100.00;61215.63;4917021;29;20043;-88
2022/11/04 09:00:16;;;;;;;0.38;0.20;;;;;;;-142.57;100.00;61215.63;4920839;29;20035;-90
2022/11/04 09:02:42;;;;;;;0.30;0.20;;;;;;;-142.57;100.00;61215.63;4930472;29;20075;-88
2022/11/04 09:05:11;;;;;;;2.83;0.25;;;;;;;-142.57;100.00;61215.63;4927354;29;20055;-88
2022/11/04 09:07:36;;;;;;;0.52;0.20;;;;;;;-142.57;100.00;61215.63;4921955;29;20119;-90
2022/11/04 09:10:04;;;;;;;0.40;0.20;;;;;;;-142.57;100.00;61215.63;4933535;29;20115;-89
2022/11/04 09:12:30;;;;;;;0.20;0.20;;;;;;;-142.57;100.00;61215.63;4923199;29;20114;-91
2022/11/04 09:14:56;;;;;;;0.30;0.20;;;;;;;-142.57;100.00;61215.63;4928070;29;20127;-88
2022/11/04 09:17:21;;;;;;;0.80;0.30;;;;;;;-142.57;100.00;61215.63;4917460;29;20032;-89
2022/11/04 09:19:47;;;;;;;0.77;0.30;;;;;;;-142.57;100.00;61215.63;4918719;29;20405;-86
2022/11/04 09:22:12;;;;;;;0.10;0.10;;;;;;;-142.57;100.00;61215.63;4920780;29;20036;-90
2022/11/04 09:24:38;;;;;;;1.42;0.30;;;;;;;-142.57;100.00;61215.63;4917843;29;20052;-93
2022/11/04 09:27:04;;;;;;;2.40;0.30;;;;;;;-142.57;100.00;61215.63;4927729;29;20631;-91
2022/11/04 09:29:32;;;;;;;1.05;0.30;;;;;;;-142.57;100.00;61215.63;4925408;29;20040;-87
2022/11/04 09:31:59;;;;;;;0.20;0.20;;;;;;;-142.57;100.00;61215.63;4927227;29;20028;-89
2022/11/04 09:34:25;;;;;;;1.85;0.40;;;;;;;-142.57;100.00;61215.63;4927551;29;20032;-91
2022/11/04 09:36:54;;;;;;;0.50;0.25;;;;;;;-142.57;100.00;61215.63;4932422;29;20054;-91
2022/11/04 09:39:20;;;;;;;3.30;0.30;;;;;;;-142.57;100.00;61215.63;4920944;29;20032;-89
2022/11/04 09:41:51;;;;;;;0.90;0.20;;;;;;;-142.57;100.00;61215.63;4932518;29;20104;-89
2022/11/04 09:44:46;;;;;;;8.68;0.50;;;;;;;-142.57;100.00;61215.63;4930612;29;20042;-89
2022/11/04 09:47:12;;;;;;;2.00;0.35;;;;;;;-142.57;100.00;61215.63;4922955;29;20035;-90
2022/11/04 09:49:43;;;;;;;2.92;0.32;;;;;;;-142.57;100.00;61215.63;4929341;29;20123;-91
2022/11/04 09:52:20;;;;;;;0.47;0.43;;;;;;;-142.57;100.00;61215.63;4931266;29;20036;-88
2022/11/04 09:55:00;;;;;;;3.70;0.40;;;;;;;-142.57;100.00;61215.63;4921962;29;20039;-90
2022/11/04 09:57:27;;;;;;;1.30;0.40;;;;;;;-142.57;100.00;61215.63;4916723;29;20055;-91
2022/11/04 09:59:56;;;;;;;3.95;0.50;;;;;;;-142.57;100.00;61215.63;4927472;29;20027;-89
2022/11/04 10:02:45;;;;;;;0.77;0.22;;;;;;;-142.57;100.00;61215.63;4920849;29;20036;-87
2022/11/04 10:05:32;;;;;;;1.13;0.30;;;;;;;-142.57;100.00;61215.63;4922509;29;20032;-89
2022/11/04 10:08:08;;;;;;;3.33;0.38;;;;;;;-142.57;100.00;61215.63;4922947;29;20401;-89
2022/11/04 10:10:48;;;;;;;2.47;0.25;;;;;;;-142.57;100.00;61215.63;4927395;29;20028;-90
2022/11/04 10:13:52;;;;;;;1.20;0.20;;;;;;;-142.57;100.00;61215.63;4936341;29;20028;-87
2022/11/04 10:16:34;;;;;;;0.50;0.28;;;;;;;-142.57;100.00;61215.63;4977581;28;20039;-87
2022/11/04 10:19:44;;;;;;;0.40;0.20;;;;;;;-142.57;100.00;61215.63;4959940;29;20146;-88
2022/11/04 10:22:27;;;;;;;0.32;0.20;;;;;;;-142.57;100.00;61215.63;4946040;29;20052;-88
2022/11/04 10:25:09;;;;;;;1.77;0.30;;;;;;;-142.57;100.00;61215.63;4928689;29;20375;-89
2022/11/04 10:27:38;;;;;;;2.45;0.13;;;;;;;-142.57;100.00;61215.63;4936917;29;20136;-86
2022/11/04 10:30:15;;;;;;;0.20;0.20;;;;;;;-142.57;100.00;61215.63;4921036;29;20079;-87
2022/11/04 10:32:52;;;;;;;0.35;0.30;;;;;;;-142.57;100.00;61215.63;4919291;29;20036;-90
2022/11/04 10:35:18;;;;;;;0.20;0.20;;;;;;;-142.57;100.00;61215.63;4920471;29;20071;-86
2022/11/04 10:37:50;;;;;;;0.20;0.10;;;;;;;-142.57;100.00;61215.63;4919766;29;20043;-86
2022/11/04 10:40:25;;;;;;;0.13;0.10;;;;;;;-142.57;100.00;61215.63;4920881;29;20044;-89
2022/11/04 10:42:52;;;;;;;0.43;0.20;;;;;;;-142.57;100.00;61215.63;4925044;29;20040;-87
2022/11/04 10:45:22;;;;;;;2.10;0.25;;;;;;;-142.57;100.00;61215.63;4928238;29;20024;-89
2022/11/04 10:47:57;;;;;;;0.32;0.20;;;;;;;-142.57;100.00;61215.63;4926033;29;20044;-85
2022/11/04 10:50:29;;;;;;;0.13;0.10;;;;;;;-142.57;100.00;61215.63;4935929;29;20028;-87
2022/11/04 10:53:10;;;;;;;0.25;0.15;;;;;;;-142.57;100.00;61215.63;4941262;29;20087;-92
2022/11/04 10:55:45;;;;;;;0.32;0.30;;;;;;;-142.57;100.00;61215.63;4937943;29;20036;-89
2022/11/04 10:58:20;;;;;;;0.98;0.20;;;;;;;-142.57;100.00;61215.63;4948044;29;20035;-88
2022/11/04 11:00:46;;;;;;;1.80;0.40;;;;;;;-142.57;100.00;61215.63;4937699;29;20607;-84
2022/11/04 11:03:32;;;;;;;0.57;0.28;;;;;;;-142.57;100.00;61215.63;4940409;29;20027;-87
2022/11/04 11:06:22;;;;;;;0.50;0.20;;;;;;;-142.57;100.00;61215.63;4943233;29;20512;-87
2022/11/04 11:08:49;;;;;;;2.13;0.30;;;;;;;-142.57;100.00;61215.63;4943309;29;20028;-88
2022/11/04 11:11:16;;;;;;;1.15;0.40;;;;;;;-142.57;100.00;61215.63;4941267;29;20083;-87
2022/11/04 11:13:45;;;;;;;0.20;0.20;;;;;;;-142.57;100.00;61215.63;4925372;29;20043;-88
2022/11/04 11:16:17;;;;;;;2.13;0.22;;;;;;;-142.57;100.00;61215.63;4943130;29;20039;-92
2022/11/04 11:19:13;;;;;;;0.65;0.30;;;;;;;-142.57;100.00;61215.63;4941969;29;20047;-86
2022/11/04 11:21:44;;;;;;;0.90;0.30;;;;;;;-142.57;100.00;61215.63;4944640;29;20046;-88
2022/11/04 11:24:36;;;;;;;0.32;0.20;;;;;;;-142.57;100.00;61215.63;4939021;29;20039;-91
2022/11/04 11:27:11;;;;;;;3.83;0.20;;;;;;;-142.57;100.00;61215.63;4937860;29;20529;-86
2022/11/04 11:29:41;;;;;;;0.50;0.35;;;;;;;-142.57;100.00;61215.63;4937067;29;20036;-88
2022/11/04 11:32:33;;;;;;;0.57;0.20;;;;;;;-142.57;100.00;61215.63;4936495;29;20048;-86
2022/11/04 11:35:01;;;;;;;1.80;0.30;;;;;;;-142.57;100.00;61215.63;4936264;29;20043;-86
2022/11/04 11:37:30;;;;;;;1.25;0.30;;;;;;;-142.57;100.00;61215.63;4934099;29;20111;-86
2022/11/04 11:39:56;;;;;;;1.17;0.20;;;;;;;-142.57;100.00;61215.63;4935321;29;20040;-87
2022/11/04 11:42:22;;;;;;;2.00;0.22;;;;;;;-142.57;100.00;61215.63;4935647;29;20036;-90
2022/11/04 11:44:53;;;;;;;4.18;0.30;;;;;;;-142.57;100.00;61215.63;4935745;29;20066;-87
2022/11/04 11:47:35;;;;;;;5.43;0.40;;;;;;;-142.57;100.00;61215.63;4919061;29;20036;-88
2022/11/04 11:50:17;;;;;;;1.10;0.30;;;;;;;-142.57;100.00;61215.63;4926146;29;20036;-86
2022/11/04 11:52:47;;;;;;;0.95;0.28;;;;;;;-142.57;100.00;61215.63;4922988;29;20063;-88